sensor_id;sensor_type;location;lat;lon;timestamp;temperature;humidity
7048;DHT22;3565;53.254;10.352;2023-02-26T00:02:10;-1.40;99.90
7048;DHT22;3565;53.254;10.352;2023-02-26T00:04:40;-1.40;99.90
7048;DHT22;3565;53.254;10.352;2023-02-26T00:07:09;-1.30;99.90
7048;DHT22;3565;53.254;10.352;2023-02-26T00:09:38;-1.30;99.90
7048;DHT22;3565;53.254;10.352;2023-02-26T00:12:10;-1.20;99.90
7048;DHT22;3565;53.254;10.352;2023-02-26T00:14:41;-1.20;99.90
7048;DHT22;3565;53.254;10.352;2023-02-26T00:17:21;-1.20;99.90
7048;DHT22;3565;53.254;10.352;2023-02-26T00:19:52;-1.20;99.90
7048;DHT22;3565;53.254;10.352;2023-02-26T00:25:00;-1.20;99.90
7048;DHT22;3565;53.254;10.352;2023-02-26T00:27:30;-1.20;99.90
7048;DHT22;3565;53.254;10.352;2023-02-26T00:30:01;-1.10;99.90
7048;DHT22;3565;53.254;10.352;2023-02-26T00:32:32;-1.10;99.90
7048;DHT22;3565;53.254;10.352;2023-02-26T00:35:02;-1.00;99.90
7048;DHT22;3565;53.254;10.352;2023-02-26T00:37:37;-1.00;99.90
7048;DHT22;3565;53.254;10.352;2023-02-26T00:40:14;-0.90;99.90
7048;DHT22;3565;53.254;10.352;2023-02-26T00:42:47;-1.00;99.90
7048;DHT22;3565;53.254;10.352;2023-02-26T00:45:18;-1.00;99.90
7048;DHT22;3565;53.254;10.352;2023-02-26T00:47:51;-1.00;99.90
7048;DHT22;3565;53.254;10.352;2023-02-26T00:50:25;-1.00;99.90
7048;DHT22;3565;53.254;10.352;2023-02-26T00:53:02;-1.00;99.90
7048;DHT22;3565;53.254;10.352;2023-02-26T00:55:32;-1.10;99.90
7048;DHT22;3565;53.254;10.352;2023-02-26T00:58:02;-1.10;99.90
7048;DHT22;3565;53.254;10.352;2023-02-26T01:00:33;-1.10;99.90
7048;DHT22;3565;53.254;10.352;2023-02-26T01:03:05;-1.10;99.90
7048;DHT22;3565;53.254;10.352;2023-02-26T01:05:36;-1.10;99.90
7048;DHT22;3565;53.254;10.352;2023-02-26T01:08:09;-1.10;99.90
7048;DHT22;3565;53.254;10.352;2023-02-26T01:10:41;-1.20;99.90
7048;DHT22;3565;53.254;10.352;2023-02-26T01:13:11;-1.20;99.90
7048;DHT22;3565;53.254;10.352;2023-02-26T01:18:27;-1.20;99.90
7048;DHT22;3565;53.254;10.352;2023-02-26T01:21:01;-1.10;99.90
7048;DHT22;3565;53.254;10.352;2023-02-26T01:23:32;-1.10;99.90
7048;DHT22;3565;53.254;10.352;2023-02-26T01:26:04;-1.20;99.90
7048;DHT22;3565;53.254;10.352;2023-02-26T01:28:35;-1.20;99.90
7048;DHT22;3565;53.254;10.352;2023-02-26T01:31:06;-1.10;99.90
7048;DHT22;3565;53.254;10.352;2023-02-26T01:33:40;-1.10;99.90
7048;DHT22;3565;53.254;10.352;2023-02-26T01:36:12;-1.00;99.90
7048;DHT22;3565;53.254;10.352;2023-02-26T01:38:46;-1.00;99.90
7048;DHT22;3565;53.254;10.352;2023-02-26T01:41:24;-1.10;99.90
7048;DHT22;3565;53.254;10.352;2023-02-26T01:46:40;-1.00;16.00
7048;DHT22;3565;53.254;10.352;2023-02-26T01:49:11;-1.00;1.00
7048;DHT22;3565;53.254;10.352;2023-02-26T01:51:50;-1.10;99.90
7048;DHT22;3565;53.254;10.352;2023-02-26T01:54:21;-1.10;99.90
7048;DHT22;3565;53.254;10.352;2023-02-26T01:56:55;-1.10;99.90
7048;DHT22;3565;53.254;10.352;2023-02-26T01:59:23;-1.20;1.00
7048;DHT22;3565;53.254;10.352;2023-02-26T02:01:56;-1.30;1.00
7048;DHT22;3565;53.254;10.352;2023-02-26T02:04:27;-1.40;1.00
7048;DHT22;3565;53.254;10.352;2023-02-26T02:06:56;-1.40;1.00
7048;DHT22;3565;53.254;10.352;2023-02-26T02:09:26;-1.40;99.90
7048;DHT22;3565;53.254;10.352;2023-02-26T02:12:15;-1.50;99.90
7048;DHT22;3565;53.254;10.352;2023-02-26T02:14:51;-1.50;99.90
7048;DHT22;3565;53.254;10.352;2023-02-26T02:17:23;-1.40;1.00
7048;DHT22;3565;53.254;10.352;2023-02-26T02:20:20;-1.40;1.00
7048;DHT22;3565;53.254;10.352;2023-02-26T02:23:00;-1.40;99.90
7048;DHT22;3565;53.254;10.352;2023-02-26T02:28:38;-1.50;99.90
7048;DHT22;3565;53.254;10.352;2023-02-26T02:31:10;-1.50;1.00
7048;DHT22;3565;53.254;10.352;2023-02-26T02:33:43;-1.60;27.40
7048;DHT22;3565;53.254;10.352;2023-02-26T02:36:16;-1.70;1.00
7048;DHT22;3565;53.254;10.352;2023-02-26T02:41:29;-1.70;1.00
7048;DHT22;3565;53.254;10.352;2023-02-26T02:44:02;-1.80;99.90
7048;DHT22;3565;53.254;10.352;2023-02-26T02:46:37;-1.90;99.90
7048;DHT22;3565;53.254;10.352;2023-02-26T02:51:49;-1.90;99.90
7048;DHT22;3565;53.254;10.352;2023-02-26T02:54:23;-1.90;99.90
7048;DHT22;3565;53.254;10.352;2023-02-26T02:56:55;-1.90;99.90
7048;DHT22;3565;53.254;10.352;2023-02-26T02:59:27;-1.80;99.90
7048;DHT22;3565;53.254;10.352;2023-02-26T03:02:01;-1.80;99.90
7048;DHT22;3565;53.254;10.352;2023-02-26T03:04:30;-1.80;99.90
7048;DHT22;3565;53.254;10.352;2023-02-26T03:07:00;-1.70;99.90
7048;DHT22;3565;53.254;10.352;2023-02-26T03:09:29;-1.80;99.90
7048;DHT22;3565;53.254;10.352;2023-02-26T03:11:59;-1.90;99.90
7048;DHT22;3565;53.254;10.352;2023-02-26T03:14:29;-1.90;99.90
7048;DHT22;3565;53.254;10.352;2023-02-26T03:17:10;-1.90;99.90
7048;DHT22;3565;53.254;10.352;2023-02-26T03:19:46;-1.90;99.90
7048;DHT22;3565;53.254;10.352;2023-02-26T03:22:17;-2.00;99.90
7048;DHT22;3565;53.254;10.352;2023-02-26T03:24:50;-2.00;99.90
7048;DHT22;3565;53.254;10.352;2023-02-26T03:27:25;-1.90;99.90
7048;DHT22;3565;53.254;10.352;2023-02-26T03:29:58;-1.90;99.90
7048;DHT22;3565;53.254;10.352;2023-02-26T03:32:30;-2.00;99.90
7048;DHT22;3565;53.254;10.352;2023-02-26T03:35:06;-1.90;99.90
7048;DHT22;3565;53.254;10.352;2023-02-26T03:37:37;-2.00;96.50
7048;DHT22;3565;53.254;10.352;2023-02-26T03:40:12;-2.00;99.90
7048;DHT22;3565;53.254;10.352;2023-02-26T03:42:45;-2.00;99.90
7048;DHT22;3565;53.254;10.352;2023-02-26T03:48:03;-2.10;99.90
7048;DHT22;3565;53.254;10.352;2023-02-26T03:50:36;-2.10;99.70
7048;DHT22;3565;53.254;10.352;2023-02-26T03:53:08;-2.10;99.90
7048;DHT22;3565;53.254;10.352;2023-02-26T03:55:41;-2.10;98.50
7048;DHT22;3565;53.254;10.352;2023-02-26T03:58:11;-2.20;99.90
7048;DHT22;3565;53.254;10.352;2023-02-26T04:00:43;-2.20;99.90
7048;DHT22;3565;53.254;10.352;2023-02-26T04:03:16;-2.10;99.90
7048;DHT22;3565;53.254;10.352;2023-02-26T04:05:48;-2.10;95.70
7048;DHT22;3565;53.254;10.352;2023-02-26T04:08:19;-2.20;99.90
7048;DHT22;3565;53.254;10.352;2023-02-26T04:11:08;-2.20;99.90
7048;DHT22;3565;53.254;10.352;2023-02-26T04:13:39;-2.30;99.90
7048;DHT22;3565;53.254;10.352;2023-02-26T04:16:09;-2.20;99.90
7048;DHT22;3565;53.254;10.352;2023-02-26T04:18:39;-2.30;99.90
7048;DHT22;3565;53.254;10.352;2023-02-26T04:23:49;-2.30;99.90
7048;DHT22;3565;53.254;10.352;2023-02-26T04:26:18;-2.30;99.90
7048;DHT22;3565;53.254;10.352;2023-02-26T04:28:48;-2.20;99.90
7048;DHT22;3565;53.254;10.352;2023-02-26T04:31:18;-2.20;99.90
7048;DHT22;3565;53.254;10.352;2023-02-26T04:33:48;-2.20;99.90
7048;DHT22;3565;53.254;10.352;2023-02-26T04:36:18;-2.20;99.90
7048;DHT22;3565;53.254;10.352;2023-02-26T04:38:48;-2.30;99.90
7048;DHT22;3565;53.254;10.352;2023-02-26T04:41:17;-2.30;99.90
7048;DHT22;3565;53.254;10.352;2023-02-26T04:43:47;-2.30;99.90
7048;DHT22;3565;53.254;10.352;2023-02-26T04:46:17;-2.30;99.90
7048;DHT22;3565;53.254;10.352;2023-02-26T04:48:46;-2.20;99.90
7048;DHT22;3565;53.254;10.352;2023-02-26T04:51:16;-2.30;99.90
7048;DHT22;3565;53.254;10.352;2023-02-26T04:53:45;-2.20;99.90
7048;DHT22;3565;53.254;10.352;2023-02-26T04:56:15;-2.20;99.90
7048;DHT22;3565;53.254;10.352;2023-02-26T05:01:25;-2.20;99.90
7048;DHT22;3565;53.254;10.352;2023-02-26T05:03:55;-2.30;99.90
7048;DHT22;3565;53.254;10.352;2023-02-26T05:06:24;-2.30;99.90
7048;DHT22;3565;53.254;10.352;2023-02-26T05:08:54;-2.30;99.90
7048;DHT22;3565;53.254;10.352;2023-02-26T05:11:23;-2.30;99.90
7048;DHT22;3565;53.254;10.352;2023-02-26T05:13:54;-2.30;99.90
7048;DHT22;3565;53.254;10.352;2023-02-26T05:16:24;-2.20;99.90
7048;DHT22;3565;53.254;10.352;2023-02-26T05:18:54;-2.20;99.90
7048;DHT22;3565;53.254;10.352;2023-02-26T05:21:23;-2.20;99.90
7048;DHT22;3565;53.254;10.352;2023-02-26T05:23:53;-2.20;99.90
7048;DHT22;3565;53.254;10.352;2023-02-26T05:26:22;-2.20;99.90
7048;DHT22;3565;53.254;10.352;2023-02-26T05:28:52;-2.30;99.90
7048;DHT22;3565;53.254;10.352;2023-02-26T05:31:22;-2.30;99.90
7048;DHT22;3565;53.254;10.352;2023-02-26T05:33:51;-2.30;99.90
7048;DHT22;3565;53.254;10.352;2023-02-26T05:36:20;-2.30;99.90
7048;DHT22;3565;53.254;10.352;2023-02-26T05:38:49;-2.30;99.90
7048;DHT22;3565;53.254;10.352;2023-02-26T05:41:18;-2.40;99.90
7048;DHT22;3565;53.254;10.352;2023-02-26T05:43:48;-2.50;99.90
7048;DHT22;3565;53.254;10.352;2023-02-26T05:46:17;-2.50;99.90
7048;DHT22;3565;53.254;10.352;2023-02-26T05:48:46;-2.40;99.90
7048;DHT22;3565;53.254;10.352;2023-02-26T05:51:16;-2.40;99.90
7048;DHT22;3565;53.254;10.352;2023-02-26T05:53:45;-2.40;99.90
7048;DHT22;3565;53.254;10.352;2023-02-26T05:56:15;-2.40;99.90
7048;DHT22;3565;53.254;10.352;2023-02-26T05:58:45;-2.40;99.90
7048;DHT22;3565;53.254;10.352;2023-02-26T06:01:14;-2.50;99.90
7048;DHT22;3565;53.254;10.352;2023-02-26T06:03:44;-2.50;99.90
7048;DHT22;3565;53.254;10.352;2023-02-26T06:06:14;-2.40;99.90
7048;DHT22;3565;53.254;10.352;2023-02-26T06:08:45;-2.50;99.90
7048;DHT22;3565;53.254;10.352;2023-02-26T06:11:14;-2.40;99.90
7048;DHT22;3565;53.254;10.352;2023-02-26T06:13:43;-2.40;99.90
7048;DHT22;3565;53.254;10.352;2023-02-26T06:16:14;-2.40;99.90
7048;DHT22;3565;53.254;10.352;2023-02-26T06:18:43;-2.40;99.90
7048;DHT22;3565;53.254;10.352;2023-02-26T06:21:12;-2.50;99.90
7048;DHT22;3565;53.254;10.352;2023-02-26T06:23:42;-2.50;99.90
7048;DHT22;3565;53.254;10.352;2023-02-26T06:26:11;-2.50;99.90
7048;DHT22;3565;53.254;10.352;2023-02-26T06:28:41;-2.50;99.90
7048;DHT22;3565;53.254;10.352;2023-02-26T06:31:10;-2.40;99.90
7048;DHT22;3565;53.254;10.352;2023-02-26T06:33:39;-2.40;99.90
7048;DHT22;3565;53.254;10.352;2023-02-26T06:36:09;-2.40;99.90
7048;DHT22;3565;53.254;10.352;2023-02-26T06:38:38;-2.50;99.90
7048;DHT22;3565;53.254;10.352;2023-02-26T06:41:07;-2.50;99.90
7048;DHT22;3565;53.254;10.352;2023-02-26T06:43:36;-2.40;99.90
7048;DHT22;3565;53.254;10.352;2023-02-26T06:46:07;-2.50;99.90
7048;DHT22;3565;53.254;10.352;2023-02-26T06:48:36;-2.50;99.90
7048;DHT22;3565;53.254;10.352;2023-02-26T06:51:06;-2.50;99.90
7048;DHT22;3565;53.254;10.352;2023-02-26T06:53:36;-2.40;99.90
7048;DHT22;3565;53.254;10.352;2023-02-26T06:56:06;-2.30;99.90
7048;DHT22;3565;53.254;10.352;2023-02-26T06:58:36;-2.30;99.90
7048;DHT22;3565;53.254;10.352;2023-02-26T07:01:05;-2.30;99.90
7048;DHT22;3565;53.254;10.352;2023-02-26T07:03:34;-2.20;99.90
7048;DHT22;3565;53.254;10.352;2023-02-26T07:06:06;-2.20;99.90
7048;DHT22;3565;53.254;10.352;2023-02-26T07:08:36;-2.10;96.60
7048;DHT22;3565;53.254;10.352;2023-02-26T07:11:05;-2.10;92.70
7048;DHT22;3565;53.254;10.352;2023-02-26T07:13:35;-2.00;92.50
7048;DHT22;3565;53.254;10.352;2023-02-26T07:16:07;-2.00;87.10
7048;DHT22;3565;53.254;10.352;2023-02-26T07:18:36;-1.90;78.00
7048;DHT22;3565;53.254;10.352;2023-02-26T07:21:06;-1.90;78.10
7048;DHT22;3565;53.254;10.352;2023-02-26T07:23:35;-1.80;68.50
7048;DHT22;3565;53.254;10.352;2023-02-26T07:26:04;-1.80;57.20
7048;DHT22;3565;53.254;10.352;2023-02-26T07:28:36;-1.80;61.50
7048;DHT22;3565;53.254;10.352;2023-02-26T07:31:05;-1.80;50.50
7048;DHT22;3565;53.254;10.352;2023-02-26T07:33:35;-1.70;49.30
7048;DHT22;3565;53.254;10.352;2023-02-26T07:36:07;-1.70;40.20
7048;DHT22;3565;53.254;10.352;2023-02-26T07:38:36;-1.60;33.00
7048;DHT22;3565;53.254;10.352;2023-02-26T07:41:06;-1.60;30.00
7048;DHT22;3565;53.254;10.352;2023-02-26T07:43:35;-1.60;33.40
7048;DHT22;3565;53.254;10.352;2023-02-26T07:46:05;-1.50;25.30
7048;DHT22;3565;53.254;10.352;2023-02-26T07:48:35;-1.50;21.40
7048;DHT22;3565;53.254;10.352;2023-02-26T07:51:05;-1.40;14.60
7048;DHT22;3565;53.254;10.352;2023-02-26T07:53:35;-1.30;1.20
7048;DHT22;3565;53.254;10.352;2023-02-26T07:56:05;-1.20;2.30
7048;DHT22;3565;53.254;10.352;2023-02-26T07:58:34;-1.10;1.00
7048;DHT22;3565;53.254;10.352;2023-02-26T08:01:04;-1.10;1.00
7048;DHT22;3565;53.254;10.352;2023-02-26T08:03:33;-1.00;1.00
7048;DHT22;3565;53.254;10.352;2023-02-26T08:06:03;-1.00;1.00
7048;DHT22;3565;53.254;10.352;2023-02-26T08:08:32;-0.90;1.00
7048;DHT22;3565;53.254;10.352;2023-02-26T08:11:03;-0.80;1.00
7048;DHT22;3565;53.254;10.352;2023-02-26T08:13:32;-0.70;1.00
7048;DHT22;3565;53.254;10.352;2023-02-26T08:16:02;-0.70;1.00
7048;DHT22;3565;53.254;10.352;2023-02-26T08:18:33;-0.60;1.00
7048;DHT22;3565;53.254;10.352;2023-02-26T08:21:04;-0.50;1.00
7048;DHT22;3565;53.254;10.352;2023-02-26T08:23:33;-0.50;1.00
7048;DHT22;3565;53.254;10.352;2023-02-26T08:26:04;-0.30;1.00
7048;DHT22;3565;53.254;10.352;2023-02-26T08:28:34;-0.30;1.00
7048;DHT22;3565;53.254;10.352;2023-02-26T08:31:04;-0.20;1.00
7048;DHT22;3565;53.254;10.352;2023-02-26T08:33:34;-0.10;1.00
7048;DHT22;3565;53.254;10.352;2023-02-26T08:36:04;-0.10;1.00
7048;DHT22;3565;53.254;10.352;2023-02-26T08:38:34;-0.10;1.00
7048;DHT22;3565;53.254;10.352;2023-02-26T08:41:04;0.00;1.00
7048;DHT22;3565;53.254;10.352;2023-02-26T08:43:33;0.10;1.00
7048;DHT22;3565;53.254;10.352;2023-02-26T08:46:03;0.10;1.00
7048;DHT22;3565;53.254;10.352;2023-02-26T08:48:33;0.20;1.00
7048;DHT22;3565;53.254;10.352;2023-02-26T08:51:02;0.30;1.00
7048;DHT22;3565;53.254;10.352;2023-02-26T08:53:33;0.30;1.00
7048;DHT22;3565;53.254;10.352;2023-02-26T08:56:02;0.40;1.00
7048;DHT22;3565;53.254;10.352;2023-02-26T08:58:31;0.50;1.00
7048;DHT22;3565;53.254;10.352;2023-02-26T09:01:01;0.60;1.00
7048;DHT22;3565;53.254;10.352;2023-02-26T09:03:31;0.70;1.00
7048;DHT22;3565;53.254;10.352;2023-02-26T09:06:01;0.80;1.00
7048;DHT22;3565;53.254;10.352;2023-02-26T09:08:31;0.80;1.00
7048;DHT22;3565;53.254;10.352;2023-02-26T09:11:02;0.90;1.00
7048;DHT22;3565;53.254;10.352;2023-02-26T09:13:32;0.90;1.00
7048;DHT22;3565;53.254;10.352;2023-02-26T09:16:01;1.10;1.00
7048;DHT22;3565;53.254;10.352;2023-02-26T09:18:30;1.10;1.00
7048;DHT22;3565;53.254;10.352;2023-02-26T09:21:00;1.20;1.00
7048;DHT22;3565;53.254;10.352;2023-02-26T09:23:29;1.30;1.00
7048;DHT22;3565;53.254;10.352;2023-02-26T09:25:59;1.60;1.00
7048;DHT22;3565;53.254;10.352;2023-02-26T09:28:28;1.60;1.00
7048;DHT22;3565;53.254;10.352;2023-02-26T09:30:57;1.80;1.00
7048;DHT22;3565;53.254;10.352;2023-02-26T09:33:26;1.80;1.00
7048;DHT22;3565;53.254;10.352;2023-02-26T09:35:55;1.90;1.00
7048;DHT22;3565;53.254;10.352;2023-02-26T09:38:25;2.00;1.00
7048;DHT22;3565;53.254;10.352;2023-02-26T09:40:57;2.10;1.00
7048;DHT22;3565;53.254;10.352;2023-02-26T09:43:53;2.20;1.00
7048;DHT22;3565;53.254;10.352;2023-02-26T09:46:27;2.30;1.00
7048;DHT22;3565;53.254;10.352;2023-02-26T09:51:39;2.30;1.00
7048;DHT22;3565;53.254;10.352;2023-02-26T09:54:13;2.50;1.00
7048;DHT22;3565;53.254;10.352;2023-02-26T09:56:43;2.70;1.00
7048;DHT22;3565;53.254;10.352;2023-02-26T09:59:13;2.70;1.00
7048;DHT22;3565;53.254;10.352;2023-02-26T10:01:46;2.80;1.00
7048;DHT22;3565;53.254;10.352;2023-02-26T10:04:23;2.80;1.00
7048;DHT22;3565;53.254;10.352;2023-02-26T10:07:01;3.00;1.00
7048;DHT22;3565;53.254;10.352;2023-02-26T10:09:40;3.20;1.00
7048;DHT22;3565;53.254;10.352;2023-02-26T10:12:11;3.20;1.00
7048;DHT22;3565;53.254;10.352;2023-02-26T10:14:43;2.90;1.00
7048;DHT22;3565;53.254;10.352;2023-02-26T10:17:17;3.10;1.00
7048;DHT22;3565;53.254;10.352;2023-02-26T10:19:49;3.30;1.00
7048;DHT22;3565;53.254;10.352;2023-02-26T10:22:23;2.90;1.00
7048;DHT22;3565;53.254;10.352;2023-02-26T10:24:54;3.20;1.00
7048;DHT22;3565;53.254;10.352;2023-02-26T10:27:35;3.50;1.00
7048;DHT22;3565;53.254;10.352;2023-02-26T10:30:02;3.70;1.00
7048;DHT22;3565;53.254;10.352;2023-02-26T10:32:34;3.80;1.00
7048;DHT22;3565;53.254;10.352;2023-02-26T10:35:08;3.90;1.00
7048;DHT22;3565;53.254;10.352;2023-02-26T10:37:43;4.10;1.00
7048;DHT22;3565;53.254;10.352;2023-02-26T10:40:18;4.60;1.00
7048;DHT22;3565;53.254;10.352;2023-02-26T10:42:49;4.80;1.00
7048;DHT22;3565;53.254;10.352;2023-02-26T10:45:32;4.50;1.00
7048;DHT22;3565;53.254;10.352;2023-02-26T10:48:10;4.60;1.00
7048;DHT22;3565;53.254;10.352;2023-02-26T10:50:38;4.80;1.00
7048;DHT22;3565;53.254;10.352;2023-02-26T10:53:10;5.00;1.00
7048;DHT22;3565;53.254;10.352;2023-02-26T10:55:42;5.60;1.00
7048;DHT22;3565;53.254;10.352;2023-02-26T10:58:16;6.00;1.00
7048;DHT22;3565;53.254;10.352;2023-02-26T11:00:48;5.30;1.00
7048;DHT22;3565;53.254;10.352;2023-02-26T11:03:21;5.00;1.00
7048;DHT22;3565;53.254;10.352;2023-02-26T11:05:51;5.20;1.00
7048;DHT22;3565;53.254;10.352;2023-02-26T11:08:27;4.90;1.00
7048;DHT22;3565;53.254;10.352;2023-02-26T11:10:59;4.70;1.00
7048;DHT22;3565;53.254;10.352;2023-02-26T11:13:30;4.50;1.00
7048;DHT22;3565;53.254;10.352;2023-02-26T11:16:02;4.70;1.00
7048;DHT22;3565;53.254;10.352;2023-02-26T11:18:36;5.10;1.00
7048;DHT22;3565;53.254;10.352;2023-02-26T11:21:07;5.10;1.00
7048;DHT22;3565;53.254;10.352;2023-02-26T11:23:37;5.00;1.00
7048;DHT22;3565;53.254;10.352;2023-02-26T11:26:08;5.40;1.00
7048;DHT22;3565;53.254;10.352;2023-02-26T11:28:43;5.70;1.00
7048;DHT22;3565;53.254;10.352;2023-02-26T11:33:58;5.20;1.00
7048;DHT22;3565;53.254;10.352;2023-02-26T11:36:31;5.20;1.00
7048;DHT22;3565;53.254;10.352;2023-02-26T11:39:04;5.10;1.00
7048;DHT22;3565;53.254;10.352;2023-02-26T11:41:37;4.70;1.00
7048;DHT22;3565;53.254;10.352;2023-02-26T11:44:10;4.60;1.00
7048;DHT22;3565;53.254;10.352;2023-02-26T11:46:42;5.30;1.00
7048;DHT22;3565;53.254;10.352;2023-02-26T11:49:15;5.50;1.00
7048;DHT22;3565;53.254;10.352;2023-02-26T11:52:14;5.50;1.00
7048;DHT22;3565;53.254;10.352;2023-02-26T11:54:44;5.00;1.00
7048;DHT22;3565;53.254;10.352;2023-02-26T11:57:18;5.10;1.00
7048;DHT22;3565;53.254;10.352;2023-02-26T11:59:50;5.30;1.00
7048;DHT22;3565;53.254;10.352;2023-02-26T12:02:22;5.40;1.00
7048;DHT22;3565;53.254;10.352;2023-02-26T12:04:53;5.60;1.00
7048;DHT22;3565;53.254;10.352;2023-02-26T12:07:23;5.50;1.00
7048;DHT22;3565;53.254;10.352;2023-02-26T12:09:52;5.30;1.00
7048;DHT22;3565;53.254;10.352;2023-02-26T12:15:27;5.50;1.00
7048;DHT22;3565;53.254;10.352;2023-02-26T12:18:22;5.50;1.00
7048;DHT22;3565;53.254;10.352;2023-02-26T12:20:57;5.90;1.00
7048;DHT22;3565;53.254;10.352;2023-02-26T12:23:35;5.60;1.00
7048;DHT22;3565;53.254;10.352;2023-02-26T12:26:13;5.40;1.00
7048;DHT22;3565;53.254;10.352;2023-02-26T12:28:56;5.30;1.00
7048;DHT22;3565;53.254;10.352;2023-02-26T12:37:51;4.80;1.00
7048;DHT22;3565;53.254;10.352;2023-02-26T12:40:40;4.60;1.00
7048;DHT22;3565;53.254;10.352;2023-02-26T12:43:08;4.60;1.00
7048;DHT22;3565;53.254;10.352;2023-02-26T12:45:45;4.30;1.00
7048;DHT22;3565;53.254;10.352;2023-02-26T12:51:42;4.30;1.00
7048;DHT22;3565;53.254;10.352;2023-02-26T12:54:31;4.20;1.00
7048;DHT22;3565;53.254;10.352;2023-02-26T12:57:38;4.30;1.00
7048;DHT22;3565;53.254;10.352;2023-02-26T13:00:14;4.40;1.00
7048;DHT22;3565;53.254;10.352;2023-02-26T13:03:03;4.30;1.00
7048;DHT22;3565;53.254;10.352;2023-02-26T13:05:43;4.30;1.00
7048;DHT22;3565;53.254;10.352;2023-02-26T13:08:17;4.40;1.00
7048;DHT22;3565;53.254;10.352;2023-02-26T13:10:59;4.60;1.00
7048;DHT22;3565;53.254;10.352;2023-02-26T13:16:28;4.50;1.00
7048;DHT22;3565;53.254;10.352;2023-02-26T13:21:45;4.40;1.00
7048;DHT22;3565;53.254;10.352;2023-02-26T13:24:18;4.20;1.00
7048;DHT22;3565;53.254;10.352;2023-02-26T13:26:48;4.20;1.00
7048;DHT22;3565;53.254;10.352;2023-02-26T13:29:22;4.20;1.00
7048;DHT22;3565;53.254;10.352;2023-02-26T13:31:54;4.30;1.00
7048;DHT22;3565;53.254;10.352;2023-02-26T13:34:32;4.40;1.00
7048;DHT22;3565;53.254;10.352;2023-02-26T13:37:03;4.60;1.00
7048;DHT22;3565;53.254;10.352;2023-02-26T13:39:41;4.30;1.00
7048;DHT22;3565;53.254;10.352;2023-02-26T13:42:17;4.20;1.00
7048;DHT22;3565;53.254;10.352;2023-02-26T13:44:53;4.00;1.00
7048;DHT22;3565;53.254;10.352;2023-02-26T13:47:30;3.80;1.00
7048;DHT22;3565;53.254;10.352;2023-02-26T13:50:12;3.70;1.00
7048;DHT22;3565;53.254;10.352;2023-02-26T13:52:49;3.80;1.00
7048;DHT22;3565;53.254;10.352;2023-02-26T13:55:37;3.80;1.00
7048;DHT22;3565;53.254;10.352;2023-02-26T13:58:24;3.90;1.00
7048;DHT22;3565;53.254;10.352;2023-02-26T14:01:06;4.00;1.00
7048;DHT22;3565;53.254;10.352;2023-02-26T14:03:33;4.10;1.00
7048;DHT22;3565;53.254;10.352;2023-02-26T14:09:28;4.30;1.00
7048;DHT22;3565;53.254;10.352;2023-02-26T14:11:57;4.50;1.00
7048;DHT22;3565;53.254;10.352;2023-02-26T14:14:39;4.30;1.00
7048;DHT22;3565;53.254;10.352;2023-02-26T14:20:22;4.00;1.00
7048;DHT22;3565;53.254;10.352;2023-02-26T14:23:09;4.10;1.00
7048;DHT22;3565;53.254;10.352;2023-02-26T14:25:35;4.30;1.00
7048;DHT22;3565;53.254;10.352;2023-02-26T14:31:25;4.80;1.00
7048;DHT22;3565;53.254;10.352;2023-02-26T14:34:13;5.50;1.00
7048;DHT22;3565;53.254;10.352;2023-02-26T14:36:45;5.70;1.00
7048;DHT22;3565;53.254;10.352;2023-02-26T14:39:24;5.40;1.00
7048;DHT22;3565;53.254;10.352;2023-02-26T14:42:00;5.10;1.00
7048;DHT22;3565;53.254;10.352;2023-02-26T14:44:33;4.90;1.00
7048;DHT22;3565;53.254;10.352;2023-02-26T14:47:03;4.70;1.00
7048;DHT22;3565;53.254;10.352;2023-02-26T14:49:35;4.60;1.00
7048;DHT22;3565;53.254;10.352;2023-02-26T14:55:12;4.60;1.00
7048;DHT22;3565;53.254;10.352;2023-02-26T14:58:09;4.50;1.00
7048;DHT22;3565;53.254;10.352;2023-02-26T15:00:42;4.80;1.00
7048;DHT22;3565;53.254;10.352;2023-02-26T15:03:37;5.00;1.00
7048;DHT22;3565;53.254;10.352;2023-02-26T15:06:19;4.80;1.00
7048;DHT22;3565;53.254;10.352;2023-02-26T15:08:56;4.70;1.00
7048;DHT22;3565;53.254;10.352;2023-02-26T15:11:34;4.60;1.00
7048;DHT22;3565;53.254;10.352;2023-02-26T15:14:34;4.60;1.00
7048;DHT22;3565;53.254;10.352;2023-02-26T15:17:08;4.40;1.00
7048;DHT22;3565;53.254;10.352;2023-02-26T15:19:55;4.30;1.00
7048;DHT22;3565;53.254;10.352;2023-02-26T15:22:34;4.20;1.00
7048;DHT22;3565;53.254;10.352;2023-02-26T15:27:55;4.10;1.00
7048;DHT22;3565;53.254;10.352;2023-02-26T15:30:25;4.10;1.00
7048;DHT22;3565;53.254;10.352;2023-02-26T15:32:59;4.10;1.00
7048;DHT22;3565;53.254;10.352;2023-02-26T15:35:30;4.10;1.00
7048;DHT22;3565;53.254;10.352;2023-02-26T15:38:03;4.20;1.00
7048;DHT22;3565;53.254;10.352;2023-02-26T15:40:35;4.20;1.00
7048;DHT22;3565;53.254;10.352;2023-02-26T15:43:07;4.20;1.00
7048;DHT22;3565;53.254;10.352;2023-02-26T15:45:39;4.00;1.00
7048;DHT22;3565;53.254;10.352;2023-02-26T15:48:14;3.90;1.00
7048;DHT22;3565;53.254;10.352;2023-02-26T15:50:47;3.80;1.00
7048;DHT22;3565;53.254;10.352;2023-02-26T15:53:20;3.60;1.00
7048;DHT22;3565;53.254;10.352;2023-02-26T15:55:50;3.60;1.00
7048;DHT22;3565;53.254;10.352;2023-02-26T15:58:27;3.50;1.00
7048;DHT22;3565;53.254;10.352;2023-02-26T16:00:54;3.40;1.00
7048;DHT22;3565;53.254;10.352;2023-02-26T16:03:27;3.30;1.00
7048;DHT22;3565;53.254;10.352;2023-02-26T16:05:59;3.30;1.00
7048;DHT22;3565;53.254;10.352;2023-02-26T16:08:31;3.20;1.00
7048;DHT22;3565;53.254;10.352;2023-02-26T16:11:01;3.30;1.00
7048;DHT22;3565;53.254;10.352;2023-02-26T16:13:32;3.30;1.00
7048;DHT22;3565;53.254;10.352;2023-02-26T16:16:07;3.30;1.00
7048;DHT22;3565;53.254;10.352;2023-02-26T16:18:39;3.10;1.00
7048;DHT22;3565;53.254;10.352;2023-02-26T16:23:54;3.00;1.00
7048;DHT22;3565;53.254;10.352;2023-02-26T16:26:28;2.90;1.00
7048;DHT22;3565;53.254;10.352;2023-02-26T16:29:01;2.80;1.00
7048;DHT22;3565;53.254;10.352;2023-02-26T16:31:31;2.70;1.00
7048;DHT22;3565;53.254;10.352;2023-02-26T16:34:04;2.70;1.00
7048;DHT22;3565;53.254;10.352;2023-02-26T16:36:37;2.60;1.00
7048;DHT22;3565;53.254;10.352;2023-02-26T16:42:07;2.50;1.00
7048;DHT22;3565;53.254;10.352;2023-02-26T16:44:46;2.40;1.00
7048;DHT22;3565;53.254;10.352;2023-02-26T16:47:16;2.40;1.00
7048;DHT22;3565;53.254;10.352;2023-02-26T16:49:47;2.20;1.00
7048;DHT22;3565;53.254;10.352;2023-02-26T16:52:19;2.20;1.00
7048;DHT22;3565;53.254;10.352;2023-02-26T16:57:41;2.20;1.00
7048;DHT22;3565;53.254;10.352;2023-02-26T17:00:16;2.10;1.00
7048;DHT22;3565;53.254;10.352;2023-02-26T17:02:47;2.00;1.00
7048;DHT22;3565;53.254;10.352;2023-02-26T17:05:23;2.00;1.00
7048;DHT22;3565;53.254;10.352;2023-02-26T17:07:59;1.90;1.00
7048;DHT22;3565;53.254;10.352;2023-02-26T17:10:32;2.00;1.00
7048;DHT22;3565;53.254;10.352;2023-02-26T17:15:50;1.90;1.00
7048;DHT22;3565;53.254;10.352;2023-02-26T17:18:22;1.80;1.00
7048;DHT22;3565;53.254;10.352;2023-02-26T17:20:51;1.70;1.00
7048;DHT22;3565;53.254;10.352;2023-02-26T17:23:21;1.70;1.00
7048;DHT22;3565;53.254;10.352;2023-02-26T17:25:52;1.60;1.00
7048;DHT22;3565;53.254;10.352;2023-02-26T17:28:36;1.60;1.00
7048;DHT22;3565;53.254;10.352;2023-02-26T17:31:07;1.50;1.00
7048;DHT22;3565;53.254;10.352;2023-02-26T17:33:40;1.50;1.00
7048;DHT22;3565;53.254;10.352;2023-02-26T17:36:14;1.40;1.00
7048;DHT22;3565;53.254;10.352;2023-02-26T17:38:45;1.30;1.00
7048;DHT22;3565;53.254;10.352;2023-02-26T17:41:17;1.30;1.00
7048;DHT22;3565;53.254;10.352;2023-02-26T17:43:46;1.30;1.00
7048;DHT22;3565;53.254;10.352;2023-02-26T17:46:16;1.20;1.00
7048;DHT22;3565;53.254;10.352;2023-02-26T17:48:46;1.20;1.00
7048;DHT22;3565;53.254;10.352;2023-02-26T17:51:15;1.20;1.00
7048;DHT22;3565;53.254;10.352;2023-02-26T17:53:44;1.10;1.00